Time;durP1;ratioP1;P1;durP2;ratioP2;P2;SDS_P1;SDS_P2;PMS_P1;PMS_P2;Temp;Humidity;BMP_temperature;BMP_pressure;BME280_temperature;BME280_humidity;BME280_pressure;Samples;Min_cycle;Max_cycle;Signal;HPM_P1;HPM_P2
2023/03/16 00:00:48;;;;;;;17.00;8.52;;;4.40;99.90;;;;;;4964035;28;20035;-77
2023/03/16 00:03:18;;;;;;;15.38;8.13;;;4.50;99.90;;;;;;4969585;28;20019;-80
2023/03/16 00:05:51;;;;;;;13.48;6.60;;;4.40;99.90;;;;;;4954394;28;20093;-79
2023/03/16 00:08:18;;;;;;;13.48;7.22;;;4.50;99.90;;;;;;4952485;29;20387;-79
2023/03/16 00:10:47;;;;;;;13.15;6.75;;;4.50;99.90;;;;;;4952117;29;20027;-78
2023/03/16 00:13:15;;;;;;;17.15;7.60;;;4.50;99.90;;;;;;4952556;29;20023;-78
2023/03/16 00:15:48;;;;;;;11.70;6.43;;;4.50;99.90;;;;;;4952600;28;20046;-79
2023/03/16 00:18:14;;;;;;;13.20;6.32;;;4.50;99.90;;;;;;4952421;29;20133;-78
2023/03/16 00:20:40;;;;;;;12.50;6.38;;;4.60;99.90;;;;;;4952200;29;20399;-74
2023/03/16 00:23:06;;;;;;;12.90;5.55;;;4.50;99.90;;;;;;4952255;29;20085;-76
2023/03/16 00:25:32;;;;;;;11.18;5.93;;;4.60;99.90;;;;;;4952276;29;20043;-77
2023/03/16 00:27:58;;;;;;;12.85;6.65;;;4.60;99.90;;;;;;4952168;29;20483;-78
2023/03/16 00:30:26;;;;;;;13.98;6.75;;;4.60;99.90;;;;;;4952191;29;20019;-77
2023/03/16 00:32:52;;;;;;;13.07;6.47;;;4.60;99.90;;;;;;4952264;29;20031;-74
2023/03/16 00:35:18;;;;;;;10.77;5.85;;;4.60;99.90;;;;;;4952161;29;20027;-78
2023/03/16 00:37:44;;;;;;;12.00;6.07;;;4.60;99.90;;;;;;4951982;29;20086;-78
2023/03/16 00:40:13;;;;;;;9.00;5.20;;;4.70;99.90;;;;;;4950935;29;20487;-77
2023/03/16 00:42:39;;;;;;;15.90;6.60;;;4.70;99.90;;;;;;4919429;29;20118;-77
2023/03/16 00:45:06;;;;;;;12.50;7.07;;;4.80;99.90;;;;;;4951671;29;20027;-77
2023/03/16 00:47:34;;;;;;;12.95;7.03;;;4.80;99.90;;;;;;4950985;29;20050;-76
2023/03/16 00:50:01;;;;;;;12.77;7.03;;;4.90;99.90;;;;;;4951966;29;20026;-75
2023/03/16 00:52:28;;;;;;;17.17;6.72;;;4.80;99.90;;;;;;4952214;28;20133;-77
2023/03/16 00:54:56;;;;;;;10.85;5.80;;;4.80;99.90;;;;;;4967735;28;20055;-77
2023/03/16 00:57:24;;;;;;;12.40;5.70;;;4.80;99.90;;;;;;4970490;28;20019;-77
2023/03/16 00:59:51;;;;;;;10.77;5.47;;;4.90;99.90;;;;;;4970881;28;20050;-73
2023/03/16 01:02:22;;;;;;;12.00;5.78;;;4.80;99.90;;;;;;4958452;28;20066;-78
2023/03/16 01:04:48;;;;;;;9.18;5.68;;;4.80;99.90;;;;;;4960544;28;20039;-77
2023/03/16 01:07:14;;;;;;;13.75;6.35;;;4.90;99.90;;;;;;4960901;28;20034;-76
2023/03/16 01:09:41;;;;;;;13.73;6.95;;;5.00;99.90;;;;;;4976259;28;20066;-75
2023/03/16 01:12:16;;;;;;;12.40;6.80;;;5.00;99.90;;;;;;4985715;28;20351;-76
2023/03/16 01:14:47;;;;;;;13.73;7.20;;;5.00;99.90;;;;;;4994073;28;20385;-73
2023/03/16 01:17:14;;;;;;;11.35;6.30;;;4.80;99.90;;;;;;4995360;28;20045;-73
2023/03/16 01:19:41;;;;;;;12.32;5.95;;;4.80;99.90;;;;;;4995004;28;20072;-76
2023/03/16 01:22:09;;;;;;;14.85;7.45;;;4.70;99.90;;;;;;4993882;28;20200;-75
2023/03/16 01:24:35;;;;;;;20.75;10.00;;;4.60;99.90;;;;;;4993900;28;20030;-76
2023/03/16 01:27:02;;;;;;;17.63;10.85;;;4.60;99.90;;;;;;4995031;28;20088;-76
2023/03/16 01:29:28;;;;;;;23.02;14.10;;;4.60;99.90;;;;;;4995237;28;20281;-74
2023/03/16 01:31:56;;;;;;;30.23;19.38;;;4.60;99.90;;;;;;4978046;28;20034;-77
2023/03/16 01:34:22;;;;;;;26.48;16.73;;;4.50;99.90;;;;;;4974570;28;20430;-74
2023/03/16 01:36:49;;;;;;;20.40;13.02;;;4.50;99.90;;;;;;4958522;28;20126;-76
2023/03/16 01:39:23;;;;;;;17.23;8.73;;;4.60;99.90;;;;;;4962481;28;20022;-77
2023/03/16 01:41:49;;;;;;;16.48;8.10;;;4.60;99.90;;;;;;4955190;28;20175;-76
2023/03/16 01:44:21;;;;;;;15.30;8.43;;;4.50;99.90;;;;;;4974246;28;20022;-72
2023/03/16 01:46:48;;;;;;;15.50;8.23;;;4.60;99.90;;;;;;4990192;28;20050;-75
2023/03/16 01:49:24;;;;;;;15.25;8.80;;;4.60;99.90;;;;;;4985230;28;20483;-73
2023/03/16 01:52:07;;;;;;;14.15;7.38;;;4.60;99.90;;;;;;4976439;28;20023;-76
2023/03/16 01:55:07;;;;;;;15.43;7.40;;;4.70;99.90;;;;;;4970692;28;20055;-75
2023/03/16 01:57:38;;;;;;;14.63;6.85;;;4.70;99.90;;;;;;4915464;29;20536;-76
2023/03/16 02:00:22;;;;;;;15.23;8.07;;;4.70;99.90;;;;;;4899886;29;20068;-75
2023/03/16 02:03:13;;;;;;;13.70;7.65;;;4.70;99.90;;;;;;4899224;29;20032;-75
2023/03/16 02:06:03;;;;;;;14.27;6.53;;;4.70;99.90;;;;;;4898623;29;20028;-74
2023/03/16 02:08:32;;;;;;;14.13;7.10;;;4.70;99.90;;;;;;4913332;29;20044;-75
2023/03/16 02:10:58;;;;;;;13.18;7.32;;;4.80;99.90;;;;;;4915095;29;20109;-76
2023/03/16 02:13:35;;;;;;;14.98;7.95;;;4.80;99.90;;;;;;4899117;29;20036;-75
2023/03/16 02:16:05;;;;;;;14.13;7.55;;;4.90;99.90;;;;;;4887997;29;20128;-74
2023/03/16 02:18:32;;;;;;;15.55;8.10;;;4.90;99.90;;;;;;4915123;29;20519;-79
2023/03/16 02:21:25;;;;;;;13.43;7.60;;;4.90;99.90;;;;;;4915173;29;20032;-78
2023/03/16 02:23:51;;;;;;;14.75;7.80;;;4.80;99.90;;;;;;4899183;29;20046;-74
2023/03/16 02:27:07;;;;;;;16.13;7.70;;;4.80;99.90;;;;;;4894725;29;20132;-74
2023/03/16 02:29:44;;;;;;;17.10;8.05;;;4.80;99.90;;;;;;4840438;29;20491;-78
2023/03/16 02:32:13;;;;;;;12.30;7.05;;;4.80;99.90;;;;;;4840490;29;20038;-77
2023/03/16 02:34:39;;;;;;;13.73;7.68;;;4.80;99.90;;;;;;4875189;29;20048;-77
2023/03/16 02:37:06;;;;;;;14.13;7.20;;;4.80;99.90;;;;;;4876860;29;20049;-78
2023/03/16 02:39:33;;;;;;;14.85;7.45;;;4.60;99.90;;;;;;4901663;29;20024;-78
2023/03/16 02:42:00;;;;;;;15.90;8.77;;;4.60;99.90;;;;;;4904527;29;20037;-73
2023/03/16 02:44:35;;;;;;;15.40;7.38;;;4.60;99.90;;;;;;4913699;29;20039;-78
2023/03/16 02:47:10;;;;;;;15.20;8.80;;;4.60;99.90;;;;;;4902345;29;20481;-78
2023/03/16 02:49:38;;;;;;;18.02;8.68;;;4.60;99.90;;;;;;4879996;29;20041;-78
2023/03/16 02:52:06;;;;;;;15.35;8.30;;;4.60;99.90;;;;;;4895850;29;20029;-77
2023/03/16 02:54:32;;;;;;;17.73;9.13;;;4.50;99.90;;;;;;4878907;29;20147;-78
2023/03/16 02:56:58;;;;;;;18.45;8.60;;;4.40;99.90;;;;;;4895077;29;20592;-77
2023/03/16 02:59:25;;;;;;;16.13;8.65;;;4.30;99.90;;;;;;4879320;29;20107;-77
2023/03/16 03:01:51;;;;;;;17.90;8.52;;;4.30;99.90;;;;;;4895494;29;20478;-75
2023/03/16 03:04:17;;;;;;;17.15;8.50;;;4.30;99.90;;;;;;4943707;28;20043;-77
2023/03/16 03:06:44;;;;;;;19.02;9.10;;;4.20;99.90;;;;;;4956607;28;20109;-76
2023/03/16 03:09:13;;;;;;;15.20;8.88;;;4.30;99.90;;;;;;4973506;28;20364;-78
2023/03/16 03:11:40;;;;;;;20.27;10.25;;;4.20;99.90;;;;;;4972455;28;20030;-77
2023/03/16 03:14:06;;;;;;;21.10;9.57;;;4.30;99.90;;;;;;4980057;28;20026;-78
2023/03/16 03:16:33;;;;;;;17.08;9.82;;;4.20;99.90;;;;;;4968118;28;20047;-78
2023/03/16 03:18:59;;;;;;;24.33;10.30;;;4.20;99.90;;;;;;4965055;28;20037;-77
2023/03/16 03:21:27;;;;;;;22.30;10.65;;;4.20;99.90;;;;;;4956139;28;20085;-78
2023/03/16 03:23:53;;;;;;;17.33;10.13;;;4.10;99.90;;;;;;4953158;29;20043;-78
2023/03/16 03:26:19;;;;;;;21.58;10.30;;;4.10;99.90;;;;;;4971019;28;20027;-79
2023/03/16 03:28:46;;;;;;;24.48;13.13;;;4.10;99.90;;;;;;4956116;28;20081;-78
2023/03/16 03:31:19;;;;;;;24.05;13.32;;;4.00;99.90;;;;;;4973491;28;20031;-77
2023/03/16 03:33:45;;;;;;;23.17;11.68;;;3.90;99.90;;;;;;4973535;28;20038;-77
2023/03/16 03:36:12;;;;;;;18.42;10.25;;;3.90;99.90;;;;;;4972151;28;20043;-78
2023/03/16 03:38:42;;;;;;;18.35;9.43;;;3.90;99.90;;;;;;4971942;28;20034;-78
2023/03/16 03:41:09;;;;;;;20.38;11.45;;;3.90;99.90;;;;;;4973536;28;20025;-78
2023/03/16 03:43:37;;;;;;;28.42;13.15;;;3.80;99.90;;;;;;4973019;28;20777;-78
2023/03/16 03:46:04;;;;;;;21.08;10.70;;;3.80;99.90;;;;;;4956103;28;20065;-78
2023/03/16 03:48:32;;;;;;;18.45;9.57;;;3.70;99.90;;;;;;4955535;28;20034;-77
2023/03/16 03:50:59;;;;;;;18.65;9.52;;;3.70;99.90;;;;;;4973220;28;20054;-78
2023/03/16 03:53:42;;;;;;;18.95;8.93;;;3.70;99.90;;;;;;4954740;28;20101;-78
2023/03/16 03:56:39;;;;;;;23.30;8.77;;;3.60;99.90;;;;;;4914672;29;20044;-79
2023/03/16 03:59:10;;;;;;;17.00;8.65;;;3.50;99.90;;;;;;4897659;29;20051;-78
2023/03/16 04:01:58;;;;;;;18.92;10.57;;;3.50;99.90;;;;;;4912971;29;20130;-79
2023/03/16 04:04:33;;;;;;;23.05;12.48;;;3.40;99.90;;;;;;4907648;29;20028;-77
2023/03/16 04:06:59;;;;;;;24.33;13.43;;;3.40;99.90;;;;;;4914364;29;20496;-77
2023/03/16 04:09:25;;;;;;;20.95;12.40;;;3.30;99.90;;;;;;4897949;29;20134;-77
2023/03/16 04:11:51;;;;;;;24.77;13.15;;;3.20;99.90;;;;;;4888988;29;20119;-78
2023/03/16 04:14:17;;;;;;;18.90;10.07;;;3.20;99.90;;;;;;4913908;29;20036;-76
2023/03/16 04:16:43;;;;;;;20.67;9.90;;;3.10;99.90;;;;;;4909582;29;20043;-77
2023/03/16 04:19:11;;;;;;;17.40;8.88;;;3.10;99.90;;;;;;4902285;29;20107;-78
2023/03/16 04:21:37;;;;;;;17.52;9.57;;;3.00;99.90;;;;;;4913549;29;20032;-78
2023/03/16 04:24:04;;;;;;;15.70;8.07;;;3.00;99.90;;;;;;4897561;29;20039;-78
2023/03/16 04:26:33;;;;;;;14.80;7.28;;;2.90;99.90;;;;;;4904201;29;20036;-78
2023/03/16 04:29:02;;;;;;;14.55;7.80;;;2.90;99.90;;;;;;4908805;29;20067;-78
2023/03/16 04:31:29;;;;;;;15.75;7.43;;;2.80;99.90;;;;;;4930138;28;20155;-78
2023/03/16 04:33:55;;;;;;;17.85;8.15;;;2.80;99.90;;;;;;4991127;28;20030;-78
2023/03/16 04:36:23;;;;;;;15.95;7.38;;;2.80;99.90;;;;;;4991610;28;20053;-78
2023/03/16 04:38:50;;;;;;;15.68;8.25;;;2.80;99.90;;;;;;4977666;28;20026;-74
2023/03/16 04:41:17;;;;;;;16.00;7.13;;;2.70;99.90;;;;;;4976906;28;20022;-76
2023/03/16 04:44:03;;;;;;;10.55;6.30;;;2.80;99.90;;;;;;4971579;28;20450;-78
2023/03/16 04:46:29;;;;;;;15.98;6.90;;;2.70;99.90;;;;;;4994755;28;20373;-77
2023/03/16 04:48:58;;;;;;;21.40;6.97;;;2.70;99.90;;;;;;4994448;28;20026;-77
2023/03/16 04:51:25;;;;;;;11.32;6.40;;;2.70;99.90;;;;;;4959445;28;20026;-79
2023/03/16 04:54:03;;;;;;;16.40;8.32;;;2.80;99.90;;;;;;4963757;28;20059;-79
2023/03/16 04:56:34;;;;;;;16.63;8.88;;;2.80;99.90;;;;;;4943631;29;20487;-80
2023/03/16 04:59:04;;;;;;;15.77;8.77;;;2.80;99.90;;;;;;4953984;28;20200;-80
2023/03/16 05:01:42;;;;;;;16.75;8.20;;;2.80;99.90;;;;;;4959294;28;20046;-78
2023/03/16 05:04:08;;;;;;;17.90;8.10;;;2.80;99.90;;;;;;4990023;28;20383;-76
2023/03/16 05:06:36;;;;;;;16.65;8.70;;;2.80;99.90;;;;;;4974271;28;20023;-79
2023/03/16 05:09:04;;;;;;;17.17;7.85;;;2.80;99.90;;;;;;4995429;28;20030;-79
2023/03/16 05:11:37;;;;;;;13.07;6.90;;;2.80;99.90;;;;;;4961465;28;20026;-80
2023/03/16 05:14:06;;;;;;;19.52;8.13;;;2.70;99.90;;;;;;4957681;28;20113;-80
2023/03/16 05:16:40;;;;;;;12.57;6.60;;;2.70;99.90;;;;;;4984114;28;20042;-77
2023/03/16 05:19:07;;;;;;;14.57;7.22;;;2.70;99.90;;;;;;4967702;28;20077;-80
2023/03/16 05:21:36;;;;;;;15.73;6.32;;;2.70;99.90;;;;;;4974760;28;20034;-78
2023/03/16 05:24:05;;;;;;;18.70;7.55;;;2.70;99.90;;;;;;4957892;28;20034;-79
2023/03/16 05:26:31;;;;;;;14.82;6.25;;;2.70;99.90;;;;;;4957457;28;20121;-81
2023/03/16 05:28:57;;;;;;;9.70;5.68;;;2.80;99.90;;;;;;4958064;28;20022;-79
2023/03/16 05:31:26;;;;;;;14.32;5.80;;;2.90;99.90;;;;;;4966591;28;20022;-80
2023/03/16 05:33:56;;;;;;;15.25;7.07;;;3.40;99.90;;;;;;4961891;28;20379;-77
2023/03/16 05:36:23;;;;;;;11.70;6.45;;;4.00;99.90;;;;;;4957836;28;20129;-74
2023/03/16 05:38:53;;;;;;;10.60;5.47;;;4.50;99.90;;;;;;4974248;28;20022;-80
2023/03/16 05:41:27;;;;;;;13.45;6.28;;;4.90;99.90;;;;;;4958190;28;20116;-80
2023/03/16 05:43:59;;;;;;;11.55;6.70;;;5.60;99.90;;;;;;4974311;28;20382;-80
2023/03/16 05:46:32;;;;;;;12.40;6.30;;;5.90;99.90;;;;;;4969289;28;20027;-76
2023/03/16 05:49:00;;;;;;;11.82;5.65;;;5.90;99.90;;;;;;4957075;28;20121;-78
2023/03/16 05:51:28;;;;;;;11.65;5.90;;;4.90;99.90;;;;;;4974596;28;20031;-79
2023/03/16 05:53:57;;;;;;;11.88;6.72;;;4.40;99.90;;;;;;4974052;28;20047;-80
2023/03/16 05:56:42;;;;;;;13.57;6.72;;;4.00;99.90;;;;;;4958149;28;20050;-78
2023/03/16 05:59:08;;;;;;;14.80;6.25;;;3.70;99.90;;;;;;4973871;28;20386;-80
2023/03/16 06:01:34;;;;;;;14.75;6.88;;;3.60;99.90;;;;;;4975575;28;20042;-74
2023/03/16 06:04:04;;;;;;;15.55;6.35;;;3.50;99.90;;;;;;4968643;28;20084;-81
2023/03/16 06:06:32;;;;;;;20.50;8.52;;;3.60;99.90;;;;;;4957920;28;20390;-78
2023/03/16 06:09:05;;;;;;;14.75;7.18;;;4.20;99.90;;;;;;4976553;28;20381;-82
2023/03/16 06:11:31;;;;;;;18.50;8.70;;;4.00;99.90;;;;;;4976793;28;20031;-77
2023/03/16 06:13:59;;;;;;;15.95;7.70;;;4.10;99.90;;;;;;4977258;28;20030;-81
2023/03/16 06:16:26;;;;;;;14.45;6.97;;;4.10;99.90;;;;;;4959811;28;20039;-76
2023/03/16 06:18:52;;;;;;;14.60;8.00;;;4.10;99.90;;;;;;4987222;28;20019;-81
2023/03/16 06:21:18;;;;;;;14.23;8.20;;;4.10;99.90;;;;;;4973894;28;20030;-81
2023/03/16 06:23:46;;;;;;;14.18;7.95;;;4.10;99.90;;;;;;4957744;28;20030;-77
2023/03/16 06:26:13;;;;;;;16.70;7.80;;;4.20;99.90;;;;;;4973544;28;20089;-80
2023/03/16 06:28:41;;;;;;;19.17;7.70;;;4.40;99.90;;;;;;4973869;28;20118;-80
2023/03/16 06:31:07;;;;;;;16.55;6.45;;;4.40;99.90;;;;;;4973859;28;20446;-72
2023/03/16 06:33:35;;;;;;;12.50;6.13;;;4.40;99.90;;;;;;4958112;28;20110;-77
2023/03/16 06:36:02;;;;;;;12.35;6.15;;;4.50;99.90;;;;;;4971263;28;20039;-79
2023/03/16 06:38:41;;;;;;;15.25;6.60;;;4.50;99.90;;;;;;4951061;29;20114;-78
2023/03/16 06:41:34;;;;;;;18.08;9.27;;;4.60;99.90;;;;;;4967447;28;20487;-82
2023/03/16 06:44:01;;;;;;;22.83;10.55;;;4.70;99.90;;;;;;4994352;28;20109;-75
2023/03/16 06:46:27;;;;;;;28.15;11.48;;;4.80;99.90;;;;;;4974240;28;20122;-78
2023/03/16 06:48:54;;;;;;;20.73;8.88;;;4.90;99.90;;;;;;4968303;28;20577;-76
2023/03/16 06:51:20;;;;;;;17.75;8.63;;;4.80;99.90;;;;;;4993039;28;20433;-79
2023/03/16 06:53:49;;;;;;;17.92;8.70;;;4.90;99.90;;;;;;4956968;28;20043;-81
2023/03/16 06:56:15;;;;;;;19.40;8.73;;;5.00;99.90;;;;;;4957199;28;20069;-81
2023/03/16 06:58:44;;;;;;;11.90;5.95;;;5.00;99.90;;;;;;4973072;28;20058;-81
2023/03/16 07:01:11;;;;;;;16.58;7.63;;;5.20;99.90;;;;;;4973183;28;20062;-80
2023/03/16 07:03:37;;;;;;;12.95;5.60;;;5.10;99.90;;;;;;4992964;28;20076;-74
2023/03/16 07:06:12;;;;;;;12.57;5.00;;;5.10;99.90;;;;;;4976131;28;20037;-80
2023/03/16 07:08:38;;;;;;;11.50;4.68;;;5.20;99.90;;;;;;4976322;28;20034;-81
2023/03/16 07:11:04;;;;;;;9.45;5.10;;;5.30;99.90;;;;;;4992026;28;20053;-74
2023/03/16 07:13:30;;;;;;;11.90;5.68;;;5.20;99.90;;;;;;4975733;28;20069;-74
2023/03/16 07:15:57;;;;;;;12.80;5.85;;;5.50;99.90;;;;;;4992239;28;20489;-80
2023/03/16 07:18:24;;;;;;;12.85;5.15;;;5.50;99.90;;;;;;4976079;28;20061;-75
2023/03/16 07:20:53;;;;;;;11.00;5.65;;;5.50;99.90;;;;;;4975969;28;20085;-78
2023/03/16 07:23:19;;;;;;;8.30;4.43;;;5.50;99.90;;;;;;4975869;28;20034;-74
2023/03/16 07:25:45;;;;;;;13.18;5.22;;;5.50;99.90;;;;;;4993215;28;20034;-79
2023/03/16 07:28:12;;;;;;;9.90;4.43;;;5.70;99.90;;;;;;4968780;28;20026;-79
2023/03/16 07:30:41;;;;;;;10.73;5.32;;;5.80;99.90;;;;;;4991997;28;20065;-74
2023/03/16 07:33:08;;;;;;;11.18;5.18;;;5.80;99.90;;;;;;4993218;28;20037;-79
2023/03/16 07:35:34;;;;;;;8.85;4.60;;;5.80;99.90;;;;;;4974620;28;20038;-78
2023/03/16 07:38:00;;;;;;;11.60;5.13;;;5.90;99.90;;;;;;4993031;28;20041;-78
2023/03/16 07:40:27;;;;;;;10.43;5.35;;;5.90;99.90;;;;;;4977822;28;20018;-73
2023/03/16 07:42:57;;;;;;;14.18;4.55;;;5.80;99.90;;;;;;4956390;28;20161;-78
2023/03/16 07:45:33;;;;;;;7.65;4.72;;;5.80;99.90;;;;;;4959068;28;20565;-78
2023/03/16 07:48:00;;;;;;;11.10;4.47;;;5.80;99.90;;;;;;4966164;28;20395;-79
2023/03/16 07:50:45;;;;;;;8.05;4.53;;;5.90;99.90;;;;;;4988967;28;20030;-78
2023/03/16 07:53:13;;;;;;;11.63;5.07;;;5.70;99.90;;;;;;4975241;28;20043;-76
2023/03/16 07:55:41;;;;;;;10.68;5.28;;;6.00;99.90;;;;;;4969210;28;20542;-73
2023/03/16 07:58:09;;;;;;;14.48;5.72;;;6.00;99.90;;;;;;4973157;28;20065;-77
2023/03/16 08:00:37;;;;;;;13.70;5.90;;;6.20;99.90;;;;;;4975547;28;20486;-80
2023/03/16 08:03:04;;;;;;;11.13;4.57;;;6.50;99.90;;;;;;4992756;28;20117;-79
2023/03/16 08:05:33;;;;;;;12.77;5.47;;;6.40;99.00;;;;;;4968853;28;20027;-77
2023/03/16 08:08:08;;;;;;;11.95;6.50;;;6.30;99.90;;;;;;4975080;28;20022;-81
2023/03/16 08:10:35;;;;;;;11.82;4.88;;;6.50;99.90;;;;;;4986307;28;20433;-80
2023/03/16 08:13:13;;;;;;;16.33;6.47;;;6.50;99.90;;;;;;4973827;28;20038;-78
2023/03/16 08:15:46;;;;;;;10.52;5.18;;;6.80;99.90;;;;;;4964389;28;20035;-81
2023/03/16 08:18:20;;;;;;;9.40;5.35;;;6.70;99.90;;;;;;4960105;28;20421;-80
2023/03/16 08:20:46;;;;;;;10.77;6.07;;;6.70;98.00;;;;;;4962862;28;20442;-81
2023/03/16 08:23:14;;;;;;;13.18;6.85;;;6.70;99.90;;;;;;4992035;28;20023;-81
2023/03/16 08:25:40;;;;;;;19.85;5.60;;;6.90;99.90;;;;;;4974957;28;20037;-77
2023/03/16 08:28:14;;;;;;;14.55;5.32;;;7.10;98.00;;;;;;4974733;28;20386;-74
2023/03/16 08:30:45;;;;;;;11.73;4.85;;;7.20;97.60;;;;;;4991851;28;20038;-78
2023/03/16 08:33:38;;;;;;;14.15;6.18;;;7.20;97.20;;;;;;4975351;28;20038;-78
2023/03/16 08:36:07;;;;;;;8.32;4.60;;;7.20;96.60;;;;;;4972496;28;20034;-80
2023/03/16 08:38:34;;;;;;;9.15;4.55;;;7.40;97.80;;;;;;4975347;28;20118;-81
2023/03/16 08:41:05;;;;;;;9.27;5.10;;;7.40;97.10;;;;;;4974615;28;20057;-79
2023/03/16 08:43:32;;;;;;;9.60;5.43;;;7.40;95.40;;;;;;4974686;28;20034;-76
2023/03/16 08:45:58;;;;;;;10.70;5.78;;;7.40;95.10;;;;;;4958874;28;20034;-79
2023/03/16 08:48:32;;;;;;;14.80;5.50;;;7.40;96.60;;;;;;4972647;28;20034;-74
2023/03/16 08:51:03;;;;;;;10.32;4.60;;;7.50;97.50;;;;;;4970368;28;20027;-79
2023/03/16 08:53:29;;;;;;;9.23;4.80;;;7.40;94.90;;;;;;4991763;28;20118;-80
2023/03/16 08:56:05;;;;;;;11.57;4.97;;;7.40;94.40;;;;;;4992348;28;20053;-81
2023/03/16 08:58:33;;;;;;;15.52;7.20;;;7.60;96.00;;;;;;4992028;28;20030;-80
2023/03/16 09:01:00;;;;;;;11.63;5.13;;;7.90;96.70;;;;;;4992610;28;20077;-80
2023/03/16 09:03:26;;;;;;;11.00;5.50;;;7.80;94.10;;;;;;4992080;28;20448;-80
2023/03/16 09:05:52;;;;;;;10.98;4.88;;;7.70;93.10;;;;;;4992298;28;20033;-79
2023/03/16 09:08:18;;;;;;;12.95;5.35;;;7.90;92.90;;;;;;4979252;28;20132;-80
2023/03/16 09:10:44;;;;;;;13.55;4.55;;;8.00;94.20;;;;;;4992020;28;20022;-79
2023/03/16 09:13:11;;;;;;;13.23;5.22;;;8.10;92.40;;;;;;4991985;28;20113;-76
2023/03/16 09:15:37;;;;;;;9.20;4.45;;;8.30;93.90;;;;;;4991765;28;20038;-79
2023/03/16 09:18:04;;;;;;;11.27;5.15;;;8.40;93.60;;;;;;4992014;28;20026;-80
2023/03/16 09:20:30;;;;;;;8.82;4.70;;;8.30;94.20;;;;;;4991991;28;20046;-80
2023/03/16 09:22:56;;;;;;;16.08;6.63;;;8.20;95.30;;;;;;4992034;28;20109;-79
2023/03/16 09:25:24;;;;;;;15.13;5.07;;;8.70;93.70;;;;;;4993742;28;20018;-80
2023/03/16 09:27:50;;;;;;;16.85;5.55;;;8.60;92.70;;;;;;4995391;28;20359;-80
2023/03/16 09:30:16;;;;;;;16.77;8.13;;;8.40;93.90;;;;;;4995517;28;20103;-81
2023/03/16 09:32:42;;;;;;;8.93;4.57;;;8.30;93.80;;;;;;4995730;28;20026;-72
2023/03/16 09:35:08;;;;;;;14.48;6.90;;;8.10;93.40;;;;;;4995643;28;20104;-76
2023/03/16 09:37:35;;;;;;;19.25;8.23;;;7.90;91.80;;;;;;4960237;28;20498;-78
2023/03/16 09:40:00;;;;;;;14.95;7.47;;;7.80;91.30;;;;;;4976212;28;20386;-76
2023/03/16 09:42:36;;;;;;;17.20;6.88;;;7.70;92.00;;;;;;4975625;28;20031;-79
2023/03/16 09:45:25;;;;;;;11.40;5.88;;;7.80;91.50;;;;;;4995300;28;20555;-74
2023/03/16 09:47:57;;;;;;;9.18;4.93;;;8.20;93.00;;;;;;4974786;28;20044;-79
2023/03/16 09:50:28;;;;;;;8.17;4.07;;;8.40;90.50;;;;;;4994940;28;20033;-79
2023/03/16 09:53:12;;;;;;;18.23;5.13;;;8.60;92.30;;;;;;4995321;28;20046;-79
2023/03/16 09:55:41;;;;;;;10.88;4.40;;;8.80;90.90;;;;;;4994912;28;20034;-78
2023/03/16 09:58:26;;;;;;;13.88;5.47;;;8.80;91.10;;;;;;4994551;28;20030;-79
2023/03/16 10:01:01;;;;;;;9.15;5.07;;;8.80;90.90;;;;;;4994795;28;20470;-77
2023/03/16 10:03:39;;;;;;;13.75;5.65;;;8.90;90.00;;;;;;4994983;28;20035;-79
2023/03/16 10:06:12;;;;;;;12.10;5.40;;;9.20;91.20;;;;;;4994678;28;20371;-80
2023/03/16 10:08:51;;;;;;;14.30;5.55;;;9.10;90.30;;;;;;4995092;28;20019;-79
2023/03/16 10:11:47;;;;;;;14.93;6.05;;;9.00;89.00;;;;;;4994428;28;20030;-76
2023/03/16 10:14:30;;;;;;;9.65;4.28;;;9.10;90.10;;;;;;4994634;28;20125;-79
2023/03/16 10:16:59;;;;;;;15.85;5.85;;;9.10;86.70;;;;;;4994615;28;20080;-79
2023/03/16 10:19:40;;;;;;;13.25;6.07;;;8.90;88.50;;;;;;4994395;28;20069;-80
2023/03/16 10:22:25;;;;;;;15.30;6.85;;;8.80;86.30;;;;;;4994157;28;20167;-79
2023/03/16 10:25:28;;;;;;;10.73;5.22;;;8.90;90.10;;;;;;4993996;28;20057;-78
2023/03/16 10:27:56;;;;;;;8.90;4.40;;;8.60;84.70;;;;;;4994286;28;20382;-78
2023/03/16 10:30:28;;;;;;;13.60;4.05;;;8.70;87.10;;;;;;4994616;28;20034;-73
2023/03/16 10:32:56;;;;;;;9.45;5.45;;;8.80;87.40;;;;;;4993538;28;20105;-79
2023/03/16 10:35:45;;;;;;;13.80;6.18;;;8.70;88.60;;;;;;4993947;28;20106;-77
2023/03/16 10:38:31;;;;;;;10.45;4.70;;;8.60;90.10;;;;;;4964412;28;20533;-73
2023/03/16 10:40:58;;;;;;;10.82;4.65;;;8.50;87.60;;;;;;4974840;28;20027;-73
2023/03/16 10:43:25;;;;;;;11.02;4.28;;;8.70;88.00;;;;;;4974846;28;20018;-78
2023/03/16 10:45:51;;;;;;;14.25;5.80;;;8.80;86.80;;;;;;4993465;28;20057;-78
2023/03/16 10:48:19;;;;;;;12.98;5.68;;;8.80;87.30;;;;;;4993939;28;20026;-78
2023/03/16 10:50:54;;;;;;;11.07;3.85;;;8.60;86.80;;;;;;4994146;28;20074;-78
2023/03/16 10:53:29;;;;;;;12.02;5.13;;;8.50;90.00;;;;;;4976673;28;20047;-78
2023/03/16 10:56:00;;;;;;;9.95;4.43;;;8.80;87.70;;;;;;4974517;28;20055;-77
2023/03/16 10:58:39;;;;;;;11.25;4.72;;;9.00;90.20;;;;;;4974335;28;20050;-79
2023/03/16 11:01:22;;;;;;;11.00;4.20;;;9.00;86.00;;;;;;4974242;28;20553;-78
2023/03/16 11:03:54;;;;;;;12.25;5.72;;;8.90;85.60;;;;;;4969925;28;20076;-79
2023/03/16 11:06:31;;;;;;;8.40;3.95;;;9.00;85.20;;;;;;4994628;28;20034;-79
2023/03/16 11:09:13;;;;;;;10.20;5.03;;;9.10;85.70;;;;;;4993904;28;20037;-78
2023/03/16 11:11:45;;;;;;;8.80;4.53;;;9.40;85.20;;;;;;4993737;28;20077;-80
2023/03/16 11:14:14;;;;;;;6.78;3.83;;;9.50;84.30;;;;;;4993070;28;20379;-79
2023/03/16 11:16:59;;;;;;;9.10;4.05;;;9.50;84.80;;;;;;4992636;28;20490;-79
2023/03/16 11:19:28;;;;;;;9.90;4.25;;;9.50;83.30;;;;;;4993418;28;20088;-78
2023/03/16 11:22:07;;;;;;;13.75;5.05;;;9.10;85.00;;;;;;4993285;28;20030;-76
2023/03/16 11:24:48;;;;;;;13.05;6.47;;;9.10;84.70;;;;;;4993096;28;20057;-79
2023/03/16 11:27:26;;;;;;;6.90;3.10;;;9.50;83.90;;;;;;4993288;28;20449;-79
2023/03/16 11:30:34;;;;;;;7.88;4.13;;;9.60;81.90;;;;;;4992901;28;20037;-79
2023/03/16 11:33:00;;;;;;;9.77;4.80;;;9.50;83.10;;;;;;4952076;29;20027;-79
2023/03/16 11:35:35;;;;;;;7.78;3.80;;;9.40;82.80;;;;;;4952345;29;20031;-74
2023/03/16 11:38:14;;;;;;;9.05;4.70;;;9.20;84.00;;;;;;4936459;29;20046;-79
2023/03/16 11:41:08;;;;;;;6.57;3.60;;;9.20;84.50;;;;;;4948838;29;20037;-77
2023/03/16 11:43:49;;;;;;;22.30;11.45;;;9.20;85.40;;;;;;4951969;29;20475;-77
2023/03/16 11:46:26;;;;;;;12.20;5.93;;;9.30;87.60;;;;;;4952694;29;20063;-79
2023/03/16 11:48:55;;;;;;;8.48;4.00;;;9.40;84.20;;;;;;4951438;28;20121;-78
2023/03/16 11:51:56;;;;;;;10.05;4.78;;;9.40;85.70;;;;;;4952038;29;20036;-78
2023/03/16 11:54:24;;;;;;;9.20;4.38;;;9.40;85.80;;;;;;4894440;29;20053;-80
2023/03/16 11:57:03;;;;;;;10.15;5.22;;;9.10;83.50;;;;;;4894913;29;20045;-77
2023/03/16 11:59:40;;;;;;;14.43;5.80;;;9.10;84.40;;;;;;4895213;29;20036;-79
2023/03/16 12:02:19;;;;;;;8.98;5.03;;;8.90;85.10;;;;;;4894486;29;20044;-79
2023/03/16 12:04:45;;;;;;;14.23;6.40;;;8.70;84.40;;;;;;4895075;29;20051;-79
2023/03/16 12:07:52;;;;;;;15.80;5.28;;;8.60;85.90;;;;;;4894678;29;20536;-79
2023/03/16 12:10:32;;;;;;;6.68;3.70;;;8.60;86.00;;;;;;4911544;28;20503;-77
2023/03/16 12:13:14;;;;;;;8.13;4.18;;;8.40;86.30;;;;;;4913578;29;20039;-79
2023/03/16 12:15:49;;;;;;;13.27;5.57;;;8.50;86.30;;;;;;4913815;29;20196;-79
2023/03/16 12:18:16;;;;;;;12.13;5.57;;;8.60;87.60;;;;;;4913569;29;20052;-79
2023/03/16 12:21:04;;;;;;;10.68;5.40;;;8.90;88.70;;;;;;4913951;29;20032;-78
2023/03/16 12:23:38;;;;;;;14.38;6.72;;;9.20;87.30;;;;;;4913589;29;20460;-79
2023/03/16 12:26:04;;;;;;;11.13;4.97;;;9.30;86.50;;;;;;4913575;29;20528;-75
2023/03/16 12:28:32;;;;;;;15.38;7.50;;;9.40;85.90;;;;;;4913893;29;20119;-79
2023/03/16 12:31:16;;;;;;;13.77;6.63;;;9.40;85.30;;;;;;4959555;28;20042;-79
2023/03/16 12:33:42;;;;;;;9.88;5.05;;;9.10;84.60;;;;;;4992423;28;20031;-73
2023/03/16 12:36:27;;;;;;;13.25;5.85;;;9.10;83.50;;;;;;4992097;28;20038;-79
2023/03/16 12:39:22;;;;;;;11.85;6.22;;;9.00;84.40;;;;;;4992194;28;20026;-79
2023/03/16 12:42:04;;;;;;;10.10;4.95;;;8.90;84.80;;;;;;4951188;29;20080;-79
2023/03/16 12:44:39;;;;;;;9.00;4.22;;;9.20;82.90;;;;;;4940155;29;20417;-79
2023/03/16 12:47:22;;;;;;;14.20;6.05;;;9.20;81.50;;;;;;4950727;29;20053;-75
2023/03/16 12:49:50;;;;;;;11.45;4.70;;;9.20;84.80;;;;;;4951650;29;20078;-79
2023/03/16 12:52:17;;;;;;;12.32;5.75;;;9.20;83.40;;;;;;4951255;29;20035;-79
2023/03/16 12:55:06;;;;;;;8.07;5.18;;;9.20;83.70;;;;;;4951408;29;20083;-79
2023/03/16 12:57:32;;;;;;;13.75;5.82;;;9.30;83.80;;;;;;4951536;29;20047;-78
2023/03/16 13:00:00;;;;;;;10.95;5.18;;;9.60;86.30;;;;;;4953918;28;20042;-80
2023/03/16 13:02:33;;;;;;;15.48;7.97;;;9.80;83.10;;;;;;4955002;29;20035;-78
2023/03/16 13:05:10;;;;;;;11.95;5.75;;;10.00;88.90;;;;;;4955258;29;20039;-79
2023/03/16 13:07:45;;;;;;;9.63;4.57;;;10.10;80.30;;;;;;4955064;29;20031;-79
2023/03/16 13:10:15;;;;;;;11.25;5.75;;;10.00;80.00;;;;;;4954222;29;20035;-78